sensor_id;sensor_type;location;lat;lon;timestamp;P1;durP1;ratioP1;P2;durP2;ratioP2
72728;SDS011;60843;52.062;4.508;2023-04-15T00:02:00;6.20;;;2.50;;
72728;SDS011;60843;52.062;4.508;2023-04-15T00:04:26;6.38;;;2.38;;
72728;SDS011;60843;52.062;4.508;2023-04-15T00:06:52;7.57;;;2.72;;
72728;SDS011;60843;52.062;4.508;2023-04-15T00:09:18;8.93;;;3.05;;
72728;SDS011;60843;52.062;4.508;2023-04-15T00:11:44;8.95;;;2.50;;
72728;SDS011;60843;52.062;4.508;2023-04-15T00:14:11;7.75;;;2.78;;
72728;SDS011;60843;52.062;4.508;2023-04-15T00:16:37;10.52;;;3.15;;
72728;SDS011;60843;52.062;4.508;2023-04-15T00:19:02;10.43;;;3.57;;
72728;SDS011;60843;52.062;4.508;2023-04-15T00:21:28;7.93;;;2.77;;
72728;SDS011;60843;52.062;4.508;2023-04-15T00:23:53;7.70;;;3.05;;
72728;SDS011;60843;52.062;4.508;2023-04-15T00:26:19;6.55;;;2.80;;
72728;SDS011;60843;52.062;4.508;2023-04-15T00:28:45;6.80;;;2.78;;
72728;SDS011;60843;52.062;4.508;2023-04-15T00:31:10;4.82;;;2.72;;
72728;SDS011;60843;52.062;4.508;2023-04-15T00:33:36;5.15;;;3.08;;
72728;SDS011;60843;52.062;4.508;2023-04-15T00:36:01;7.50;;;3.33;;
72728;SDS011;60843;52.062;4.508;2023-04-15T00:38:27;6.38;;;3.10;;
72728;SDS011;60843;52.062;4.508;2023-04-15T00:40:53;7.28;;;3.90;;
72728;SDS011;60843;52.062;4.508;2023-04-15T00:43:19;6.50;;;3.33;;
72728;SDS011;60843;52.062;4.508;2023-04-15T00:45:44;6.78;;;3.60;;
72728;SDS011;60843;52.062;4.508;2023-04-15T00:48:11;7.63;;;3.63;;
72728;SDS011;60843;52.062;4.508;2023-04-15T00:50:37;7.88;;;3.38;;
72728;SDS011;60843;52.062;4.508;2023-04-15T00:53:02;7.25;;;3.55;;
72728;SDS011;60843;52.062;4.508;2023-04-15T00:55:28;7.50;;;3.70;;
72728;SDS011;60843;52.062;4.508;2023-04-15T00:57:55;6.28;;;3.50;;
72728;SDS011;60843;52.062;4.508;2023-04-15T01:00:21;9.93;;;3.17;;
72728;SDS011;60843;52.062;4.508;2023-04-15T01:02:47;6.82;;;3.72;;
72728;SDS011;60843;52.062;4.508;2023-04-15T01:05:12;7.38;;;3.63;;
72728;SDS011;60843;52.062;4.508;2023-04-15T01:07:37;8.38;;;3.42;;
72728;SDS011;60843;52.062;4.508;2023-04-15T01:10:03;8.40;;;3.33;;
72728;SDS011;60843;52.062;4.508;2023-04-15T01:12:29;7.63;;;3.65;;
72728;SDS011;60843;52.062;4.508;2023-04-15T01:14:56;5.90;;;3.20;;
72728;SDS011;60843;52.062;4.508;2023-04-15T01:17:23;8.25;;;3.83;;
72728;SDS011;60843;52.062;4.508;2023-04-15T01:19:49;9.45;;;3.65;;
72728;SDS011;60843;52.062;4.508;2023-04-15T01:22:15;9.00;;;3.80;;
72728;SDS011;60843;52.062;4.508;2023-04-15T01:24:41;7.68;;;4.03;;
72728;SDS011;60843;52.062;4.508;2023-04-15T01:27:11;8.60;;;3.40;;
72728;SDS011;60843;52.062;4.508;2023-04-15T01:29:37;8.77;;;3.33;;
72728;SDS011;60843;52.062;4.508;2023-04-15T01:32:02;5.43;;;3.42;;
72728;SDS011;60843;52.062;4.508;2023-04-15T01:34:28;8.70;;;3.28;;
72728;SDS011;60843;52.062;4.508;2023-04-15T01:36:53;6.18;;;3.58;;
72728;SDS011;60843;52.062;4.508;2023-04-15T01:39:19;8.60;;;2.95;;
72728;SDS011;60843;52.062;4.508;2023-04-15T01:41:44;5.50;;;3.90;;
72728;SDS011;60843;52.062;4.508;2023-04-15T01:44:10;8.00;;;3.67;;
72728;SDS011;60843;52.062;4.508;2023-04-15T01:46:36;8.88;;;3.90;;
72728;SDS011;60843;52.062;4.508;2023-04-15T01:49:01;8.65;;;3.88;;
72728;SDS011;60843;52.062;4.508;2023-04-15T01:51:27;7.70;;;3.85;;
72728;SDS011;60843;52.062;4.508;2023-04-15T01:53:52;8.95;;;4.07;;
72728;SDS011;60843;52.062;4.508;2023-04-15T01:56:20;5.85;;;3.45;;
72728;SDS011;60843;52.062;4.508;2023-04-15T01:58:46;6.43;;;3.40;;
72728;SDS011;60843;52.062;4.508;2023-04-15T02:01:12;8.00;;;3.25;;
72728;SDS011;60843;52.062;4.508;2023-04-15T02:03:37;9.63;;;3.73;;
72728;SDS011;60843;52.062;4.508;2023-04-15T02:06:03;6.88;;;3.25;;
72728;SDS011;60843;52.062;4.508;2023-04-15T02:08:29;6.28;;;3.50;;
72728;SDS011;60843;52.062;4.508;2023-04-15T02:10:54;6.78;;;4.13;;
72728;SDS011;60843;52.062;4.508;2023-04-15T02:13:20;7.85;;;3.72;;
72728;SDS011;60843;52.062;4.508;2023-04-15T02:15:46;9.57;;;4.00;;
72728;SDS011;60843;52.062;4.508;2023-04-15T02:18:12;8.15;;;3.95;;
72728;SDS011;60843;52.062;4.508;2023-04-15T02:20:37;6.13;;;3.75;;
72728;SDS011;60843;52.062;4.508;2023-04-15T02:23:03;9.93;;;4.72;;
72728;SDS011;60843;52.062;4.508;2023-04-15T02:25:32;7.93;;;3.92;;
72728;SDS011;60843;52.062;4.508;2023-04-15T02:27:57;6.85;;;3.97;;
72728;SDS011;60843;52.062;4.508;2023-04-15T02:30:23;7.03;;;4.33;;
72728;SDS011;60843;52.062;4.508;2023-04-15T02:32:49;8.45;;;4.18;;
72728;SDS011;60843;52.062;4.508;2023-04-15T02:35:14;6.55;;;3.60;;
72728;SDS011;60843;52.062;4.508;2023-04-15T02:37:43;6.63;;;3.80;;
72728;SDS011;60843;52.062;4.508;2023-04-15T02:40:09;9.50;;;3.80;;
72728;SDS011;60843;52.062;4.508;2023-04-15T02:42:36;12.13;;;3.50;;
72728;SDS011;60843;52.062;4.508;2023-04-15T02:45:05;9.27;;;4.28;;
72728;SDS011;60843;52.062;4.508;2023-04-15T02:47:32;6.90;;;3.83;;
72728;SDS011;60843;52.062;4.508;2023-04-15T02:49:58;8.82;;;3.75;;
72728;SDS011;60843;52.062;4.508;2023-04-15T02:52:26;10.10;;;3.50;;
72728;SDS011;60843;52.062;4.508;2023-04-15T02:54:52;9.70;;;4.07;;
72728;SDS011;60843;52.062;4.508;2023-04-15T02:57:21;7.28;;;3.22;;
72728;SDS011;60843;52.062;4.508;2023-04-15T02:59:46;6.97;;;3.90;;
72728;SDS011;60843;52.062;4.508;2023-04-15T03:02:12;10.10;;;3.80;;
72728;SDS011;60843;52.062;4.508;2023-04-15T03:04:39;7.53;;;3.20;;
72728;SDS011;60843;52.062;4.508;2023-04-15T03:07:04;9.07;;;3.92;;
72728;SDS011;60843;52.062;4.508;2023-04-15T03:09:30;9.20;;;3.92;;
72728;SDS011;60843;52.062;4.508;2023-04-15T03:11:56;6.10;;;3.55;;
72728;SDS011;60843;52.062;4.508;2023-04-15T03:14:21;7.37;;;3.90;;
72728;SDS011;60843;52.062;4.508;2023-04-15T03:16:47;8.18;;;3.95;;
72728;SDS011;60843;52.062;4.508;2023-04-15T03:19:15;6.97;;;3.88;;
72728;SDS011;60843;52.062;4.508;2023-04-15T03:21:40;9.43;;;3.70;;
72728;SDS011;60843;52.062;4.508;2023-04-15T03:24:06;6.80;;;3.80;;
72728;SDS011;60843;52.062;4.508;2023-04-15T03:26:31;6.90;;;3.80;;
72728;SDS011;60843;52.062;4.508;2023-04-15T03:28:57;5.15;;;3.53;;
72728;SDS011;60843;52.062;4.508;2023-04-15T03:31:22;6.72;;;4.05;;
72728;SDS011;60843;52.062;4.508;2023-04-15T03:33:48;9.48;;;3.95;;
72728;SDS011;60843;52.062;4.508;2023-04-15T03:36:13;9.30;;;3.40;;
72728;SDS011;60843;52.062;4.508;2023-04-15T03:38:39;6.93;;;3.88;;
72728;SDS011;60843;52.062;4.508;2023-04-15T03:41:07;9.75;;;4.05;;
72728;SDS011;60843;52.062;4.508;2023-04-15T03:43:33;6.20;;;3.25;;
72728;SDS011;60843;52.062;4.508;2023-04-15T03:45:58;8.53;;;4.00;;
72728;SDS011;60843;52.062;4.508;2023-04-15T03:48:25;9.30;;;4.25;;
72728;SDS011;60843;52.062;4.508;2023-04-15T03:50:50;7.43;;;3.78;;
72728;SDS011;60843;52.062;4.508;2023-04-15T03:53:16;7.05;;;4.30;;
72728;SDS011;60843;52.062;4.508;2023-04-15T03:55:41;11.67;;;4.50;;
72728;SDS011;60843;52.062;4.508;2023-04-15T03:58:08;6.40;;;3.80;;
72728;SDS011;60843;52.062;4.508;2023-04-15T04:00:36;6.47;;;4.40;;
72728;SDS011;60843;52.062;4.508;2023-04-15T04:03:02;8.07;;;3.72;;
72728;SDS011;60843;52.062;4.508;2023-04-15T04:05:29;9.60;;;3.80;;
72728;SDS011;60843;52.062;4.508;2023-04-15T04:07:55;10.63;;;4.30;;
72728;SDS011;60843;52.062;4.508;2023-04-15T04:10:20;8.00;;;4.13;;
72728;SDS011;60843;52.062;4.508;2023-04-15T04:12:46;7.05;;;4.07;;
72728;SDS011;60843;52.062;4.508;2023-04-15T04:15:12;8.05;;;3.97;;
72728;SDS011;60843;52.062;4.508;2023-04-15T04:17:37;6.68;;;4.00;;
72728;SDS011;60843;52.062;4.508;2023-04-15T04:20:03;8.15;;;4.60;;
72728;SDS011;60843;52.062;4.508;2023-04-15T04:22:29;11.88;;;3.97;;
72728;SDS011;60843;52.062;4.508;2023-04-15T04:24:55;8.55;;;4.20;;
72728;SDS011;60843;52.062;4.508;2023-04-15T04:27:21;9.68;;;4.45;;
72728;SDS011;60843;52.062;4.508;2023-04-15T04:29:46;7.97;;;4.13;;
72728;SDS011;60843;52.062;4.508;2023-04-15T04:32:13;8.60;;;4.60;;
72728;SDS011;60843;52.062;4.508;2023-04-15T04:34:39;6.25;;;3.90;;
72728;SDS011;60843;52.062;4.508;2023-04-15T04:37:05;9.05;;;4.72;;
72728;SDS011;60843;52.062;4.508;2023-04-15T04:39:31;6.93;;;4.00;;
72728;SDS011;60843;52.062;4.508;2023-04-15T04:41:56;8.35;;;3.90;;
72728;SDS011;60843;52.062;4.508;2023-04-15T04:44:24;12.73;;;4.47;;
72728;SDS011;60843;52.062;4.508;2023-04-15T04:46:50;15.52;;;4.13;;
72728;SDS011;60843;52.062;4.508;2023-04-15T04:49:16;8.20;;;4.30;;
72728;SDS011;60843;52.062;4.508;2023-04-15T04:51:43;12.20;;;4.85;;
72728;SDS011;60843;52.062;4.508;2023-04-15T04:54:10;7.70;;;4.25;;
72728;SDS011;60843;52.062;4.508;2023-04-15T04:56:35;8.82;;;4.95;;
72728;SDS011;60843;52.062;4.508;2023-04-15T04:59:03;7.30;;;4.18;;
72728;SDS011;60843;52.062;4.508;2023-04-15T05:01:28;10.18;;;4.57;;
72728;SDS011;60843;52.062;4.508;2023-04-15T05:03:55;9.80;;;4.70;;
72728;SDS011;60843;52.062;4.508;2023-04-15T05:06:21;9.50;;;4.65;;
72728;SDS011;60843;52.062;4.508;2023-04-15T05:08:47;8.57;;;4.55;;
72728;SDS011;60843;52.062;4.508;2023-04-15T05:11:12;11.30;;;4.82;;
72728;SDS011;60843;52.062;4.508;2023-04-15T05:13:38;8.38;;;4.53;;
72728;SDS011;60843;52.062;4.508;2023-04-15T05:16:04;12.70;;;5.05;;
72728;SDS011;60843;52.062;4.508;2023-04-15T05:18:30;6.22;;;4.32;;
72728;SDS011;60843;52.062;4.508;2023-04-15T05:20:56;7.75;;;4.78;;
72728;SDS011;60843;52.062;4.508;2023-04-15T05:23:21;10.90;;;5.68;;
72728;SDS011;60843;52.062;4.508;2023-04-15T05:25:48;9.10;;;4.57;;
72728;SDS011;60843;52.062;4.508;2023-04-15T05:28:13;7.20;;;4.07;;
72728;SDS011;60843;52.062;4.508;2023-04-15T05:30:39;7.83;;;4.37;;
72728;SDS011;60843;52.062;4.508;2023-04-15T05:33:04;8.65;;;4.20;;
72728;SDS011;60843;52.062;4.508;2023-04-15T05:35:30;9.57;;;4.43;;
72728;SDS011;60843;52.062;4.508;2023-04-15T05:37:55;8.07;;;4.20;;
72728;SDS011;60843;52.062;4.508;2023-04-15T05:40:21;6.70;;;3.97;;
72728;SDS011;60843;52.062;4.508;2023-04-15T05:42:46;9.32;;;3.95;;
72728;SDS011;60843;52.062;4.508;2023-04-15T05:45:12;7.80;;;4.22;;
72728;SDS011;60843;52.062;4.508;2023-04-15T05:47:39;8.17;;;3.83;;
72728;SDS011;60843;52.062;4.508;2023-04-15T05:50:05;10.45;;;4.30;;
72728;SDS011;60843;52.062;4.508;2023-04-15T05:52:31;7.20;;;3.90;;
72728;SDS011;60843;52.062;4.508;2023-04-15T05:54:56;9.85;;;4.35;;
72728;SDS011;60843;52.062;4.508;2023-04-15T05:57:22;8.40;;;4.85;;
72728;SDS011;60843;52.062;4.508;2023-04-15T05:59:48;8.13;;;4.22;;
72728;SDS011;60843;52.062;4.508;2023-04-15T06:02:16;7.57;;;4.45;;
72728;SDS011;60843;52.062;4.508;2023-04-15T06:04:41;9.17;;;4.50;;
72728;SDS011;60843;52.062;4.508;2023-04-15T06:07:07;6.95;;;4.00;;
72728;SDS011;60843;52.062;4.508;2023-04-15T06:09:32;7.07;;;4.07;;
72728;SDS011;60843;52.062;4.508;2023-04-15T06:11:58;8.57;;;4.20;;
72728;SDS011;60843;52.062;4.508;2023-04-15T06:14:23;9.50;;;4.72;;
72728;SDS011;60843;52.062;4.508;2023-04-15T06:16:48;7.72;;;4.00;;
72728;SDS011;60843;52.062;4.508;2023-04-15T06:19:14;7.83;;;3.73;;
72728;SDS011;60843;52.062;4.508;2023-04-15T06:21:39;8.43;;;4.03;;
72728;SDS011;60843;52.062;4.508;2023-04-15T06:24:05;5.32;;;3.78;;
72728;SDS011;60843;52.062;4.508;2023-04-15T06:26:30;9.25;;;4.05;;
72728;SDS011;60843;52.062;4.508;2023-04-15T06:28:56;6.55;;;3.85;;
72728;SDS011;60843;52.062;4.508;2023-04-15T06:31:21;11.10;;;4.10;;
72728;SDS011;60843;52.062;4.508;2023-04-15T06:33:47;8.10;;;4.28;;
72728;SDS011;60843;52.062;4.508;2023-04-15T06:36:12;7.25;;;3.17;;
72728;SDS011;60843;52.062;4.508;2023-04-15T06:38:38;9.50;;;4.80;;
72728;SDS011;60843;52.062;4.508;2023-04-15T06:41:03;5.93;;;3.95;;
72728;SDS011;60843;52.062;4.508;2023-04-15T06:43:36;5.78;;;3.60;;
72728;SDS011;60843;52.062;4.508;2023-04-15T06:46:02;6.07;;;3.90;;
72728;SDS011;60843;52.062;4.508;2023-04-15T06:48:27;6.93;;;3.97;;
72728;SDS011;60843;52.062;4.508;2023-04-15T06:50:52;6.90;;;3.60;;
72728;SDS011;60843;52.062;4.508;2023-04-15T06:53:18;8.55;;;3.53;;
72728;SDS011;60843;52.062;4.508;2023-04-15T06:55:43;6.20;;;3.90;;
72728;SDS011;60843;52.062;4.508;2023-04-15T06:58:08;5.80;;;3.57;;
72728;SDS011;60843;52.062;4.508;2023-04-15T07:00:34;7.57;;;3.77;;
72728;SDS011;60843;52.062;4.508;2023-04-15T07:02:59;5.10;;;3.55;;
72728;SDS011;60843;52.062;4.508;2023-04-15T07:05:27;6.93;;;3.92;;
72728;SDS011;60843;52.062;4.508;2023-04-15T07:07:53;24.80;;;13.90;;
72728;SDS011;60843;52.062;4.508;2023-04-15T07:10:19;11.13;;;6.57;;
72728;SDS011;60843;52.062;4.508;2023-04-15T07:12:44;9.23;;;4.75;;
72728;SDS011;60843;52.062;4.508;2023-04-15T07:15:11;6.90;;;4.20;;
72728;SDS011;60843;52.062;4.508;2023-04-15T07:17:36;6.95;;;3.83;;
72728;SDS011;60843;52.062;4.508;2023-04-15T07:20:02;6.70;;;3.47;;
72728;SDS011;60843;52.062;4.508;2023-04-15T07:22:28;7.13;;;3.92;;
72728;SDS011;60843;52.062;4.508;2023-04-15T07:24:54;7.72;;;3.83;;
72728;SDS011;60843;52.062;4.508;2023-04-15T07:27:19;9.18;;;4.07;;
72728;SDS011;60843;52.062;4.508;2023-04-15T07:29:45;6.68;;;4.38;;
72728;SDS011;60843;52.062;4.508;2023-04-15T07:32:10;6.40;;;3.93;;
72728;SDS011;60843;52.062;4.508;2023-04-15T07:34:36;6.72;;;4.22;;
72728;SDS011;60843;52.062;4.508;2023-04-15T07:37:02;8.60;;;4.75;;
72728;SDS011;60843;52.062;4.508;2023-04-15T07:39:27;9.75;;;4.47;;
72728;SDS011;60843;52.062;4.508;2023-04-15T07:41:53;8.13;;;4.47;;
72728;SDS011;60843;52.062;4.508;2023-04-15T07:44:19;7.40;;;3.97;;
72728;SDS011;60843;52.062;4.508;2023-04-15T07:46:44;6.07;;;3.33;;
72728;SDS011;60843;52.062;4.508;2023-04-15T07:49:10;7.45;;;4.65;;
72728;SDS011;60843;52.062;4.508;2023-04-15T07:51:36;8.95;;;4.75;;
72728;SDS011;60843;52.062;4.508;2023-04-15T07:54:02;8.68;;;4.57;;
72728;SDS011;60843;52.062;4.508;2023-04-15T07:56:28;12.00;;;4.72;;
72728;SDS011;60843;52.062;4.508;2023-04-15T08:01:22;6.30;;;3.60;;
72728;SDS011;60843;52.062;4.508;2023-04-15T08:03:47;8.07;;;4.70;;
72728;SDS011;60843;52.062;4.508;2023-04-15T08:06:12;5.07;;;3.23;;
72728;SDS011;60843;52.062;4.508;2023-04-15T08:08:38;6.43;;;3.90;;
72728;SDS011;60843;52.062;4.508;2023-04-15T08:11:03;7.70;;;3.67;;
72728;SDS011;60843;52.062;4.508;2023-04-15T08:13:29;9.07;;;4.28;;
72728;SDS011;60843;52.062;4.508;2023-04-15T08:18:52;7.82;;;4.07;;
72728;SDS011;60843;52.062;4.508;2023-04-15T08:21:19;6.00;;;3.58;;
72728;SDS011;60843;52.062;4.508;2023-04-15T08:23:45;6.30;;;4.15;;
72728;SDS011;60843;52.062;4.508;2023-04-15T08:26:11;8.07;;;4.20;;
72728;SDS011;60843;52.062;4.508;2023-04-15T08:28:38;7.18;;;3.25;;
72728;SDS011;60843;52.062;4.508;2023-04-15T08:31:04;6.43;;;3.70;;
72728;SDS011;60843;52.062;4.508;2023-04-15T08:33:30;91.97;;;13.85;;
72728;SDS011;60843;52.062;4.508;2023-04-15T08:35:56;5.53;;;3.37;;
72728;SDS011;60843;52.062;4.508;2023-04-15T08:38:21;7.53;;;3.80;;
72728;SDS011;60843;52.062;4.508;2023-04-15T08:40:47;7.68;;;3.45;;
72728;SDS011;60843;52.062;4.508;2023-04-15T08:43:56;6.18;;;3.42;;
72728;SDS011;60843;52.062;4.508;2023-04-15T08:46:03;7.43;;;3.47;;
72728;SDS011;60843;52.062;4.508;2023-04-15T08:48:31;7.10;;;3.20;;
72728;SDS011;60843;52.062;4.508;2023-04-15T08:50:58;5.47;;;3.70;;
72728;SDS011;60843;52.062;4.508;2023-04-15T08:53:24;6.72;;;3.53;;
72728;SDS011;60843;52.062;4.508;2023-04-15T08:55:52;7.53;;;3.83;;
72728;SDS011;60843;52.062;4.508;2023-04-15T08:58:22;6.40;;;3.60;;
72728;SDS011;60843;52.062;4.508;2023-04-15T09:00:48;7.85;;;3.97;;
72728;SDS011;60843;52.062;4.508;2023-04-15T09:03:14;5.88;;;2.97;;
72728;SDS011;60843;52.062;4.508;2023-04-15T09:05:41;7.47;;;3.70;;
72728;SDS011;60843;52.062;4.508;2023-04-15T09:08:07;6.25;;;3.65;;
72728;SDS011;60843;52.062;4.508;2023-04-15T09:10:33;6.82;;;3.78;;
72728;SDS011;60843;52.062;4.508;2023-04-15T09:12:58;5.70;;;3.38;;
72728;SDS011;60843;52.062;4.508;2023-04-15T09:15:24;1.92;;;1.35;;
72728;SDS011;60843;52.062;4.508;2023-04-15T09:17:51;5.30;;;2.53;;
72728;SDS011;60843;52.062;4.508;2023-04-15T09:20:17;4.30;;;2.22;;
72728;SDS011;60843;52.062;4.508;2023-04-15T09:22:44;8.10;;;3.65;;
72728;SDS011;60843;52.062;4.508;2023-04-15T09:27:51;60.33;;;7.40;;
72728;SDS011;60843;52.062;4.508;2023-04-15T09:30:21;5.40;;;2.88;;
72728;SDS011;60843;52.062;4.508;2023-04-15T09:32:51;4.68;;;2.40;;
72728;SDS011;60843;52.062;4.508;2023-04-15T09:35:20;4.78;;;2.55;;
72728;SDS011;60843;52.062;4.508;2023-04-15T09:37:47;6.20;;;2.72;;
72728;SDS011;60843;52.062;4.508;2023-04-15T09:40:14;3.33;;;2.03;;
72728;SDS011;60843;52.062;4.508;2023-04-15T09:43:01;3.78;;;2.15;;
72728;SDS011;60843;52.062;4.508;2023-04-15T09:45:27;4.70;;;2.42;;
72728;SDS011;60843;52.062;4.508;2023-04-15T09:47:53;6.95;;;2.00;;
72728;SDS011;60843;52.062;4.508;2023-04-15T09:50:19;6.73;;;2.20;;
72728;SDS011;60843;52.062;4.508;2023-04-15T09:52:45;4.05;;;2.20;;
72728;SDS011;60843;52.062;4.508;2023-04-15T09:55:11;3.38;;;2.15;;
72728;SDS011;60843;52.062;4.508;2023-04-15T09:57:38;4.90;;;2.03;;
72728;SDS011;60843;52.062;4.508;2023-04-15T10:00:06;6.38;;;2.45;;
72728;SDS011;60843;52.062;4.508;2023-04-15T10:02:33;4.35;;;2.17;;
72728;SDS011;60843;52.062;4.508;2023-04-15T10:05:00;4.97;;;2.00;;
72728;SDS011;60843;52.062;4.508;2023-04-15T10:07:27;4.72;;;2.05;;
72728;SDS011;60843;52.062;4.508;2023-04-15T10:09:53;3.28;;;1.80;;
72728;SDS011;60843;52.062;4.508;2023-04-15T10:12:19;3.42;;;2.00;;
72728;SDS011;60843;52.062;4.508;2023-04-15T10:14:53;2.75;;;1.70;;
72728;SDS011;60843;52.062;4.508;2023-04-15T10:17:21;4.47;;;1.77;;
72728;SDS011;60843;52.062;4.508;2023-04-15T10:19:47;2.25;;;1.50;;
72728;SDS011;60843;52.062;4.508;2023-04-15T10:22:14;3.28;;;1.58;;
72728;SDS011;60843;52.062;4.508;2023-04-15T10:24:39;2.65;;;1.48;;
72728;SDS011;60843;52.062;4.508;2023-04-15T10:27:05;5.50;;;1.67;;
72728;SDS011;60843;52.062;4.508;2023-04-15T10:29:30;3.90;;;1.38;;
72728;SDS011;60843;52.062;4.508;2023-04-15T10:31:56;1.35;;;0.80;;
72728;SDS011;60843;52.062;4.508;2023-04-15T10:34:23;1.17;;;0.65;;
72728;SDS011;60843;52.062;4.508;2023-04-15T10:37:01;1.85;;;1.35;;
72728;SDS011;60843;52.062;4.508;2023-04-15T10:42:07;3.55;;;1.30;;
72728;SDS011;60843;52.062;4.508;2023-04-15T10:44:50;24.20;;;3.25;;
72728;SDS011;60843;52.062;4.508;2023-04-15T10:47:17;4.68;;;2.10;;
72728;SDS011;60843;52.062;4.508;2023-04-15T10:50:05;2.70;;;1.60;;
72728;SDS011;60843;52.062;4.508;2023-04-15T10:52:29;4.03;;;1.80;;
72728;SDS011;60843;52.062;4.508;2023-04-15T10:55:14;12.10;;;2.97;;
72728;SDS011;60843;52.062;4.508;2023-04-15T10:57:43;3.60;;;2.08;;
72728;SDS011;60843;52.062;4.508;2023-04-15T11:00:09;4.18;;;1.95;;
72728;SDS011;60843;52.062;4.508;2023-04-15T11:02:46;2.42;;;1.50;;
72728;SDS011;60843;52.062;4.508;2023-04-15T11:05:20;2.85;;;1.40;;
72728;SDS011;60843;52.062;4.508;2023-04-15T11:07:51;5.60;;;2.08;;
72728;SDS011;60843;52.062;4.508;2023-04-15T11:12:56;9.73;;;2.45;;
72728;SDS011;60843;52.062;4.508;2023-04-15T11:15:33;3.83;;;2.10;;
72728;SDS011;60843;52.062;4.508;2023-04-15T11:20:45;3.65;;;1.70;;
72728;SDS011;60843;52.062;4.508;2023-04-15T11:23:34;3.38;;;2.05;;
72728;SDS011;60843;52.062;4.508;2023-04-15T11:25:59;5.53;;;1.05;;
72728;SDS011;60843;52.062;4.508;2023-04-15T11:28:27;2.10;;;1.40;;
72728;SDS011;60843;52.062;4.508;2023-04-15T11:30:53;0.80;;;0.68;;
72728;SDS011;60843;52.062;4.508;2023-04-15T11:33:20;1.67;;;1.23;;
72728;SDS011;60843;52.062;4.508;2023-04-15T11:38:13;2.58;;;1.08;;
72728;SDS011;60843;52.062;4.508;2023-04-15T11:40:42;3.40;;;1.50;;
72728;SDS011;60843;52.062;4.508;2023-04-15T11:43:12;4.10;;;1.80;;
72728;SDS011;60843;52.062;4.508;2023-04-15T11:45:55;4.90;;;1.77;;
72728;SDS011;60843;52.062;4.508;2023-04-15T11:48:23;2.15;;;1.10;;
72728;SDS011;60843;52.062;4.508;2023-04-15T11:50:55;2.55;;;1.45;;
72728;SDS011;60843;52.062;4.508;2023-04-15T11:53:46;3.95;;;1.58;;
72728;SDS011;60843;52.062;4.508;2023-04-15T11:56:30;2.33;;;1.27;;
72728;SDS011;60843;52.062;4.508;2023-04-15T11:58:57;3.15;;;1.10;;
72728;SDS011;60843;52.062;4.508;2023-04-15T12:01:30;3.00;;;1.40;;
72728;SDS011;60843;52.062;4.508;2023-04-15T12:03:59;3.70;;;1.55;;
72728;SDS011;60843;52.062;4.508;2023-04-15T12:06:32;5.50;;;2.03;;
72728;SDS011;60843;52.062;4.508;2023-04-15T12:09:03;3.13;;;1.42;;
72728;SDS011;60843;52.062;4.508;2023-04-15T12:11:35;5.55;;;2.08;;
72728;SDS011;60843;52.062;4.508;2023-04-15T12:16:38;6.45;;;1.20;;
72728;SDS011;60843;52.062;4.508;2023-04-15T12:19:06;3.10;;;1.35;;
72728;SDS011;60843;52.062;4.508;2023-04-15T12:21:38;3.05;;;2.00;;
72728;SDS011;60843;52.062;4.508;2023-04-15T12:24:08;3.70;;;0.93;;
72728;SDS011;60843;52.062;4.508;2023-04-15T12:26:48;3.50;;;1.45;;
72728;SDS011;60843;52.062;4.508;2023-04-15T12:29:26;0.65;;;0.40;;
72728;SDS011;60843;52.062;4.508;2023-04-15T12:31:56;2.78;;;1.30;;
72728;SDS011;60843;52.062;4.508;2023-04-15T12:34:33;3.10;;;1.23;;
72728;SDS011;60843;52.062;4.508;2023-04-15T12:37:00;2.58;;;1.10;;
72728;SDS011;60843;52.062;4.508;2023-04-15T12:39:37;5.30;;;2.20;;
72728;SDS011;60843;52.062;4.508;2023-04-15T12:42:05;1.70;;;1.00;;
72728;SDS011;60843;52.062;4.508;2023-04-15T12:44:31;20.25;;;3.58;;
72728;SDS011;60843;52.062;4.508;2023-04-15T12:46:57;78.82;;;7.35;;
72728;SDS011;60843;52.062;4.508;2023-04-15T12:49:24;4.95;;;1.42;;
72728;SDS011;60843;52.062;4.508;2023-04-15T12:51:50;3.17;;;0.98;;
72728;SDS011;60843;52.062;4.508;2023-04-15T12:54:17;4.47;;;1.25;;
72728;SDS011;60843;52.062;4.508;2023-04-15T12:56:44;2.78;;;1.08;;
72728;SDS011;60843;52.062;4.508;2023-04-15T12:59:10;6.30;;;2.30;;
72728;SDS011;60843;52.062;4.508;2023-04-15T13:01:36;2.25;;;1.13;;
72728;SDS011;60843;52.062;4.508;2023-04-15T13:04:02;1.83;;;1.00;;
72728;SDS011;60843;52.062;4.508;2023-04-15T13:08:58;4.60;;;1.42;;
72728;SDS011;60843;52.062;4.508;2023-04-15T13:11:26;6.80;;;1.00;;
72728;SDS011;60843;52.062;4.508;2023-04-15T13:13:54;2.08;;;1.20;;
72728;SDS011;60843;52.062;4.508;2023-04-15T13:16:20;5.97;;;1.50;;
72728;SDS011;60843;52.062;4.508;2023-04-15T13:18:50;2.95;;;1.10;;
72728;SDS011;60843;52.062;4.508;2023-04-15T13:21:15;4.53;;;1.30;;
72728;SDS011;60843;52.062;4.508;2023-04-15T13:23:45;6.75;;;2.97;;
72728;SDS011;60843;52.062;4.508;2023-04-15T13:26:12;3.38;;;1.10;;
72728;SDS011;60843;52.062;4.508;2023-04-15T13:28:37;5.22;;;1.83;;
72728;SDS011;60843;52.062;4.508;2023-04-15T13:31:04;2.60;;;1.10;;
72728;SDS011;60843;52.062;4.508;2023-04-15T13:33:29;1.17;;;0.70;;
72728;SDS011;60843;52.062;4.508;2023-04-15T13:35:55;1.67;;;0.80;;
72728;SDS011;60843;52.062;4.508;2023-04-15T13:38:20;5.25;;;1.08;;
72728;SDS011;60843;52.062;4.508;2023-04-15T13:40:46;2.85;;;1.05;;
72728;SDS011;60843;52.062;4.508;2023-04-15T13:43:11;3.70;;;1.20;;
72728;SDS011;60843;52.062;4.508;2023-04-15T13:45:37;4.97;;;1.20;;
72728;SDS011;60843;52.062;4.508;2023-04-15T13:48:03;3.15;;;1.00;;
72728;SDS011;60843;52.062;4.508;2023-04-15T13:50:29;5.10;;;1.00;;
72728;SDS011;60843;52.062;4.508;2023-04-15T13:52:54;1.75;;;0.88;;
72728;SDS011;60843;52.062;4.508;2023-04-15T13:55:20;2.60;;;1.33;;
72728;SDS011;60843;52.062;4.508;2023-04-15T13:57:46;3.90;;;1.50;;
72728;SDS011;60843;52.062;4.508;2023-04-15T14:00:12;3.30;;;1.10;;
72728;SDS011;60843;52.062;4.508;2023-04-15T14:02:38;5.72;;;1.40;;
72728;SDS011;60843;52.062;4.508;2023-04-15T14:05:04;7.28;;;1.88;;
72728;SDS011;60843;52.062;4.508;2023-04-15T14:07:30;3.70;;;1.15;;
72728;SDS011;60843;52.062;4.508;2023-04-15T14:09:55;4.32;;;1.42;;
72728;SDS011;60843;52.062;4.508;2023-04-15T14:12:21;2.38;;;1.17;;
72728;SDS011;60843;52.062;4.508;2023-04-15T14:14:47;2.58;;;1.15;;
72728;SDS011;60843;52.062;4.508;2023-04-15T14:17:12;3.33;;;1.05;;
72728;SDS011;60843;52.062;4.508;2023-04-15T14:19:37;4.70;;;1.13;;
72728;SDS011;60843;52.062;4.508;2023-04-15T14:22:03;1.88;;;0.90;;
72728;SDS011;60843;52.062;4.508;2023-04-15T14:24:29;4.10;;;1.63;;
72728;SDS011;60843;52.062;4.508;2023-04-15T14:26:54;7.65;;;1.48;;
72728;SDS011;60843;52.062;4.508;2023-04-15T14:29:21;3.60;;;1.20;;
72728;SDS011;60843;52.062;4.508;2023-04-15T14:31:49;5.95;;;2.63;;
72728;SDS011;60843;52.062;4.508;2023-04-15T14:34:15;5.13;;;1.38;;
72728;SDS011;60843;52.062;4.508;2023-04-15T14:36:41;5.65;;;1.38;;
72728;SDS011;60843;52.062;4.508;2023-04-15T14:39:06;3.45;;;1.27;;
72728;SDS011;60843;52.062;4.508;2023-04-15T14:41:32;2.22;;;0.90;;
72728;SDS011;60843;52.062;4.508;2023-04-15T14:43:58;2.63;;;1.33;;
72728;SDS011;60843;52.062;4.508;2023-04-15T14:46:24;4.78;;;2.08;;
72728;SDS011;60843;52.062;4.508;2023-04-15T14:48:50;8.73;;;2.15;;
72728;SDS011;60843;52.062;4.508;2023-04-15T14:51:15;12.80;;;3.50;;
72728;SDS011;60843;52.062;4.508;2023-04-15T14:53:41;6.47;;;1.75;;
72728;SDS011;60843;52.062;4.508;2023-04-15T14:56:08;3.13;;;1.60;;
72728;SDS011;60843;52.062;4.508;2023-04-15T14:58:33;15.65;;;3.65;;
72728;SDS011;60843;52.062;4.508;2023-04-15T15:00:59;3.05;;;1.70;;
72728;SDS011;60843;52.062;4.508;2023-04-15T15:03:26;2.22;;;1.33;;
72728;SDS011;60843;52.062;4.508;2023-04-15T15:05:52;4.47;;;1.63;;
72728;SDS011;60843;52.062;4.508;2023-04-15T15:08:18;18.83;;;2.78;;